Main page
METAR-TAF:

METAR-TAF

Airports :

London, England

London City Airport

latitude: 51-30N, longitude: 000-03E, elevation: 5 m

Current weather observation

The report was made 19 minutes ago, at 23:50 UTC
Wind 13 kt from the South/Southwest
Temperature 10°C
Humidity 93%
Pressure 1000 hPa
Visibility: 2900 m
Broken clouds at a height of 1000 ft
light rain, drizzle

METAR: EGLC 262350Z AUTO 21013KT 2900 -RADZ BKN010 10/09 Q1000 REDZ

Time: 00:09 (00:09 UTC)

Forecast

The report was made 7 hours and 8 minutes ago, at 17:01 UTC
Forecast valid from 26 at 18 UTC to 26 at 22 UTC
Wind 15 kt from the South/Southwest
Visibility 10 km or more
Scattered clouds at a height of 2000 ft
Temporary
from 26 at 18 UTC to 26 at 22 UTC
Visibility: 6000 m
Broken clouds at a height of 1200 ft
light rain
Probability 30% :
Temporary
from 26 at 18 UTC to 26 at 22 UTC
Wind 20 kt from the Southwest with gusts up to 32 kt
rain

TAF: EGLC 261701Z 2618/2622 21015KT 9999 SCT020 TEMPO 2618/2622 6000 -RA BKN012 PROB30 TEMPO 2618/2622 23020G32KT RA

Weather observations and forecasts of more than 4000 airports (METAR and TAF reports).

The available stations are represented by yellow and red dots on the map.

Hover mouse over dot to see the name of the station.

Then click to see weather observations and forecasts.

To change the map : click on the green buttons with a black cross to zoom in, on the green button with a dash to zoom out, or on the green arrows for adjacent maps.


METAR-TAF: